createdAt,value
2022-12-16T00:01:26.279Z,-1.10
2022-12-16T00:06:16.952Z,-1.12
2022-12-16T00:11:08.983Z,-1.05
2022-12-16T00:16:00.217Z,-0.96
2022-12-16T00:20:56.002Z,-0.87
2022-12-16T00:25:45.819Z,-0.81
2022-12-16T00:30:36.220Z,-0.73
2022-12-16T00:35:26.763Z,-0.58
2022-12-16T00:40:21.432Z,-0.48
2022-12-16T00:45:11.849Z,-0.39
2022-12-16T00:50:02.020Z,-0.30
2022-12-16T00:54:51.690Z,-0.28
2022-12-16T00:59:44.507Z,-0.27
2022-12-16T01:04:34.816Z,-0.27
2022-12-16T01:09:24.693Z,-0.29
2022-12-16T01:14:14.304Z,-0.45
2022-12-16T01:19:06.900Z,-0.31
2022-12-16T01:23:56.580Z,-0.31
2022-12-16T01:28:46.101Z,-0.28
2022-12-16T01:33:36.244Z,-0.28
2022-12-16T01:38:30.121Z,-0.25
2022-12-16T01:43:21.898Z,-0.25
2022-12-16T01:48:16.593Z,-0.24
2022-12-16T01:53:07.955Z,-0.22
2022-12-16T01:58:03.127Z,-0.25
2022-12-16T02:02:54.318Z,-0.25
2022-12-16T02:07:44.915Z,-0.30
2022-12-16T02:12:42.393Z,-0.33
2022-12-16T02:17:41.323Z,-0.37
2022-12-16T02:22:36.901Z,-0.43
2022-12-16T02:27:55.050Z,-0.48
2022-12-16T02:32:56.279Z,-0.56
2022-12-16T02:37:47.779Z,-0.61
2022-12-16T02:42:40.868Z,-0.66
2022-12-16T02:47:30.900Z,-0.71
2022-12-16T02:52:25.698Z,-0.76
2022-12-16T02:57:22.657Z,-0.81
2022-12-16T03:02:16.424Z,-0.85
2022-12-16T03:07:08.206Z,-0.89
2022-12-16T03:12:02.714Z,-0.89
2022-12-16T03:16:52.929Z,-0.90
2022-12-16T03:21:46.884Z,-0.87
2022-12-16T03:26:39.136Z,-0.90
2022-12-16T03:31:38.425Z,-0.95
2022-12-16T03:36:31.172Z,-0.98
2022-12-16T03:41:23.410Z,-1.00
2022-12-16T03:46:13.826Z,-1.03
2022-12-16T03:51:06.252Z,-1.01
2022-12-16T03:55:56.221Z,-0.97
2022-12-16T04:00:45.771Z,-0.94
2022-12-16T04:05:36.088Z,-0.97
2022-12-16T04:10:40.925Z,-0.96
2022-12-16T04:15:43.480Z,-0.98
2022-12-16T04:20:48.196Z,-1.01
2022-12-16T04:25:40.913Z,-1.01
2022-12-16T04:30:34.801Z,-1.03
2022-12-16T04:35:36.987Z,-1.06
2022-12-16T04:40:38.813Z,-1.07
2022-12-16T04:45:45.772Z,-1.11
2022-12-16T04:50:47.875Z,-1.13
2022-12-16T04:55:50.128Z,-1.12
2022-12-16T05:00:55.029Z,-1.14
2022-12-16T05:05:58.029Z,-1.14
2022-12-16T05:11:00.128Z,-1.13
2022-12-16T05:16:04.723Z,-1.16
2022-12-16T05:21:06.926Z,-1.20
2022-12-16T05:26:09.552Z,-1.23
2022-12-16T05:31:15.023Z,-1.28
2022-12-16T05:36:17.463Z,-1.41
2022-12-16T05:41:20.151Z,-1.45
2022-12-16T05:46:25.354Z,-1.50
2022-12-16T05:51:27.948Z,-1.59
2022-12-16T05:56:30.233Z,-1.78
2022-12-16T06:01:38.637Z,-1.80
2022-12-16T06:06:41.904Z,-1.83
2022-12-16T06:11:45.368Z,-1.95
2022-12-16T06:16:53.562Z,-1.91
2022-12-16T06:21:55.844Z,-1.98
2022-12-16T06:26:58.071Z,-2.10
2022-12-16T06:32:03.648Z,-2.09
2022-12-16T06:37:05.952Z,-2.19
2022-12-16T06:42:08.225Z,-2.21
2022-12-16T06:47:13.153Z,-2.21
2022-12-16T06:52:16.421Z,-2.24
2022-12-16T06:57:19.151Z,-2.34
2022-12-16T07:02:26.039Z,-2.35
2022-12-16T07:07:28.399Z,-2.31
2022-12-16T07:12:31.073Z,-2.35
2022-12-16T07:17:36.383Z,-2.32
2022-12-16T07:22:39.263Z,-2.33
2022-12-16T07:27:41.547Z,-2.38
2022-12-16T07:32:47.275Z,-2.41
2022-12-16T07:37:53.364Z,-2.46
2022-12-16T07:42:56.855Z,-2.52
2022-12-16T07:48:05.999Z,-2.55
2022-12-16T07:53:11.511Z,-2.59
2022-12-16T07:58:13.928Z,-2.57
2022-12-16T08:03:19.014Z,-2.60
2022-12-16T08:08:21.393Z,-2.60
2022-12-16T08:13:25.797Z,-2.52
2022-12-16T08:18:31.209Z,-2.45
2022-12-16T08:23:34.913Z,-2.45
2022-12-16T08:28:37.850Z,-2.51
2022-12-16T08:33:43.631Z,-2.35
2022-12-16T08:38:46.467Z,-2.29
2022-12-16T08:43:50.246Z,-2.23
2022-12-16T08:48:57.487Z,-2.12
2022-12-16T08:54:01.459Z,-2.01
2022-12-16T08:59:06.865Z,-1.92
2022-12-16T09:04:13.126Z,-1.81
2022-12-16T09:09:15.881Z,-1.78
2022-12-16T09:14:20.427Z,-1.65
2022-12-16T09:19:28.135Z,-1.53
2022-12-16T09:24:31.725Z,-1.43
2022-12-16T09:29:34.991Z,-1.41
2022-12-16T09:34:40.145Z,-1.27
2022-12-16T09:39:42.486Z,-1.20
2022-12-16T09:45:02.812Z,-0.96
2022-12-16T09:50:10.217Z,-0.40
2022-12-16T09:55:13.638Z,0.43
2022-12-16T10:00:19.649Z,1.37
2022-12-16T10:05:30.234Z,2.23
2022-12-16T10:10:41.224Z,2.95
2022-12-16T10:15:52.376Z,3.28
2022-12-16T10:21:02.584Z,3.63
2022-12-16T10:26:11.229Z,3.81
2022-12-16T10:31:14.424Z,3.86
2022-12-16T10:36:27.509Z,3.71
2022-12-16T10:41:30.907Z,3.66
2022-12-16T10:46:37.910Z,3.66
2022-12-16T10:51:44.468Z,3.56
2022-12-16T10:57:07.248Z,3.53
2022-12-16T11:02:16.432Z,3.43
2022-12-16T11:07:37.401Z,3.33
2022-12-16T11:12:42.710Z,3.28
2022-12-16T11:17:45.496Z,3.29
2022-12-16T11:22:50.550Z,3.18
2022-12-16T11:27:53.346Z,3.32
2022-12-16T11:32:59.811Z,3.38
2022-12-16T11:38:08.304Z,3.39
2022-12-16T11:43:16.945Z,3.36
2022-12-16T11:48:27.875Z,3.34
2022-12-16T11:53:48.030Z,3.38
2022-12-16T11:58:57.698Z,3.47
2022-12-16T12:04:04.080Z,3.43
2022-12-16T12:09:21.558Z,3.39
2022-12-16T12:14:34.434Z,3.37
2022-12-16T12:19:47.686Z,3.42
2022-12-16T12:25:01.731Z,3.43
2022-12-16T12:30:16.905Z,3.50
2022-12-16T12:35:33.806Z,3.70
2022-12-16T12:40:56.427Z,4.32
2022-12-16T12:46:14.129Z,4.36
2022-12-16T12:51:25.237Z,4.17
2022-12-16T12:56:43.949Z,3.98
2022-12-16T13:01:50.545Z,3.89
2022-12-16T13:06:54.438Z,3.69
2022-12-16T13:12:30.661Z,3.69
2022-12-16T13:17:36.612Z,3.65
2022-12-16T13:22:47.442Z,3.62
2022-12-16T13:28:08.211Z,3.60
2022-12-16T13:33:30.615Z,3.56
2022-12-16T13:38:36.654Z,3.53
2022-12-16T13:43:59.600Z,3.53
2022-12-16T13:49:05.441Z,3.49
2022-12-16T13:54:09.722Z,3.45
2022-12-16T13:59:19.272Z,3.45
2022-12-16T14:04:41.630Z,3.45
2022-12-16T14:09:50.982Z,3.45
2022-12-16T14:14:59.746Z,3.45
2022-12-16T14:20:12.455Z,3.40
2022-12-16T14:25:24.694Z,3.38
2022-12-16T14:30:34.230Z,3.38
2022-12-16T14:35:49.419Z,3.23
2022-12-16T14:40:51.991Z,3.38
2022-12-16T14:45:55.185Z,3.33
2022-12-16T14:51:00.363Z,3.29
2022-12-16T14:56:03.073Z,3.04
2022-12-16T15:01:13.816Z,3.09
2022-12-16T15:06:23.530Z,2.95
2022-12-16T15:11:29.473Z,2.81
2022-12-16T15:16:36.447Z,2.62
2022-12-16T15:21:42.618Z,2.50
2022-12-16T15:26:47.491Z,2.40
2022-12-16T15:31:51.708Z,2.24
2022-12-16T15:37:03.402Z,2.08
2022-12-16T15:42:06.990Z,1.91
2022-12-16T15:47:10.270Z,1.82
2022-12-16T15:52:18.408Z,1.67
2022-12-16T15:57:45.432Z,1.52
2022-12-16T16:02:53.758Z,1.39
2022-12-16T16:08:03.502Z,1.16
2022-12-16T16:13:11.124Z,1.10
2022-12-16T16:18:16.373Z,0.97
2022-12-16T16:23:22.892Z,0.87
2022-12-16T16:28:26.049Z,0.66
2022-12-16T16:33:28.414Z,0.63
2022-12-16T16:38:33.375Z,0.50
2022-12-16T16:43:36.003Z,0.37
2022-12-16T16:48:39.093Z,0.24
2022-12-16T16:53:43.830Z,0.13
2022-12-16T16:58:49.575Z,-0.08
2022-12-16T17:03:51.994Z,-0.19
2022-12-16T17:08:57.707Z,-0.20
2022-12-16T17:14:01.533Z,-0.28
2022-12-16T17:19:03.808Z,-0.41
2022-12-16T17:24:10.690Z,-0.34
2022-12-16T17:29:13.747Z,-0.42
2022-12-16T17:34:24.351Z,-0.50
2022-12-16T17:39:30.386Z,-0.53
2022-12-16T17:44:33.899Z,-0.69
2022-12-16T17:49:44.990Z,-0.70
2022-12-16T17:54:54.966Z,-0.84
2022-12-16T17:59:59.665Z,-0.89
2022-12-16T18:05:03.412Z,-0.91
2022-12-16T18:10:09.422Z,-0.94
2022-12-16T18:15:12.019Z,-1.04
2022-12-16T18:20:14.270Z,-1.13
2022-12-16T18:25:33.371Z,-1.13
2022-12-16T18:30:37.056Z,-1.30
2022-12-16T18:35:39.854Z,-1.31
2022-12-16T18:40:45.632Z,-1.31
2022-12-16T18:45:49.641Z,-1.50
2022-12-16T18:50:52.034Z,-1.43
2022-12-16T18:56:02.165Z,-1.46
2022-12-16T19:01:04.610Z,-1.62
2022-12-16T19:06:12.309Z,-1.63
2022-12-16T19:11:17.278Z,-1.67
2022-12-16T19:16:20.215Z,-1.74
2022-12-16T19:21:22.702Z,-1.85
2022-12-16T19:26:32.173Z,-1.83
2022-12-16T19:31:42.773Z,-2.12
2022-12-16T19:36:55.297Z,-2.16
2022-12-16T19:42:02.344Z,-2.05
2022-12-16T19:47:05.504Z,-2.03
2022-12-16T19:52:09.445Z,-2.18
2022-12-16T19:57:18.290Z,-2.37
2022-12-16T20:02:22.120Z,-2.30
2022-12-16T20:07:25.014Z,-2.27
2022-12-16T20:12:32.032Z,-2.30
2022-12-16T20:17:40.479Z,-2.39
2022-12-16T20:22:51.970Z,-2.40
2022-12-16T20:27:58.473Z,-2.46
2022-12-16T20:33:16.017Z,-2.50
2022-12-16T20:38:19.433Z,-2.54
2022-12-16T20:43:35.906Z,-2.58
2022-12-16T20:48:41.307Z,-2.66
2022-12-16T20:53:48.144Z,-2.75
2022-12-16T20:58:57.369Z,-2.76
2022-12-16T21:04:03.708Z,-3.10
2022-12-16T21:09:07.391Z,-2.88
2022-12-16T21:14:20.724Z,-2.87
2022-12-16T21:19:29.422Z,-2.87
2022-12-16T21:24:38.796Z,-2.87
2022-12-16T21:29:47.302Z,-3.00
2022-12-16T21:34:53.092Z,-2.98
2022-12-16T21:39:58.839Z,-3.00
2022-12-16T21:45:04.748Z,-3.05
2022-12-16T21:50:08.615Z,-3.07
2022-12-16T21:55:13.208Z,-3.07
2022-12-16T22:00:22.919Z,-3.21
2022-12-16T22:05:26.875Z,-3.15
2022-12-16T22:10:30.149Z,-3.17
2022-12-16T22:15:37.389Z,-3.26
2022-12-16T22:20:43.487Z,-3.34
2022-12-16T22:25:46.758Z,-3.27
2022-12-16T22:30:52.617Z,-3.32
2022-12-16T22:35:59.668Z,-3.35
2022-12-16T22:41:10.454Z,-3.40
2022-12-16T22:46:18.089Z,-3.44
2022-12-16T22:51:27.223Z,-3.51
2022-12-16T22:56:31.464Z,-3.49
2022-12-16T23:01:37.970Z,-3.64
2022-12-16T23:06:42.636Z,-3.62
2022-12-16T23:11:50.183Z,-3.65
2022-12-16T23:16:58.879Z,-3.64
2022-12-16T23:22:05.686Z,-3.64
2022-12-16T23:27:08.895Z,-3.63
2022-12-16T23:32:15.515Z,-3.64
2022-12-16T23:37:21.294Z,-3.66
2022-12-16T23:42:24.620Z,-3.77
2022-12-16T23:47:30.738Z,-3.78
2022-12-16T23:52:33.934Z,-3.81
2022-12-16T23:57:36.514Z,-3.75
